Huvudsida
METAR-TAF:

METAR-TAF

Flygplatser :

Karleby, Finland

Karleby-Jakobstad flygplats

latitud: 63-43N, longitud: 023-09E, höjd: 25 m

Aktuellt väderrapport

Denna rapport gjordes för 38 minuter sedan, klockan 10:20 UTC
Vind 10 kt från ost/sydost, varierande mellan ost/nordost och sydost
Temperatur -11°C
Fuktighet 78%
Tryck 1003 hPa
Sikt 10 km eller mer
Inga moln under 1 500 m eller inga cumulonimbus

METAR: EFKK 171020Z 11010KT 070V140 CAVOK M11/M14 Q1003

Tid: 12:58 (10:58 UTC)

Väderprognos

Denna rapport gjordes för 2 timmar och 22 minuter sedan, klockan 08:36 UTC
Prognos gäller från 17 kl. 09 UTC till 17 kl. 18 UTC
Vind 9 kt från ost/sydost
Sikt 10 km eller mer
Inga moln under 1 500 m eller inga cumulonimbus
Sannolikhet 30%
från 17 kl. 09 UTC till 17 kl. 14 UTC
Brutna moln på en höjd av 1200 ft

TAF: EFKK 170836Z 1709/1718 11009KT CAVOK PROB30 1709/1714 BKN012

Aktuella väderrapporter och prognoser från 4000 flygplatser (METAR- och TAF-rapporter).

De tillgängliga stationerna syns som gula och röda prickar på kartan.

För musen över prickarna för att se namnen på stationerna.

Klicka sedan för att få väderrapporter och prognoser.

För att ändra kartan: Klicka på de gröna knapparna med ett svart kors på för att zooma in; den gröna knappen med ett streck på för att zooma ut; eller på de gröna pilarna för angränsande kartor.


METAR-TAF: